sensor_id;sensor_type;location;lat;lon;timestamp;temperature;humidity
73438;DHT22;66471;56.532;21.020;2023-06-22T07:12:44;20.40;92.30
73438;DHT22;66471;56.532;21.020;2023-06-22T07:15:13;20.50;91.40
73438;DHT22;66471;56.532;21.020;2023-06-22T07:17:40;20.70;90.60
73438;DHT22;66471;56.532;21.020;2023-06-22T07:20:09;20.70;90.30
73438;DHT22;66471;56.532;21.020;2023-06-22T07:22:38;20.60;90.40
73438;DHT22;66471;56.532;21.020;2023-06-22T07:25:06;20.50;90.30
73438;DHT22;66471;56.532;21.020;2023-06-22T07:27:56;20.60;90.00
73438;DHT22;66471;56.532;21.020;2023-06-22T07:30:24;20.60;89.40
73438;DHT22;66471;56.532;21.020;2023-06-22T07:33:21;20.60;89.40
73438;DHT22;66471;56.532;21.020;2023-06-22T07:36:08;20.50;90.00
73438;DHT22;66471;56.532;21.020;2023-06-22T07:38:35;20.60;89.70
73438;DHT22;66471;56.532;21.020;2023-06-22T07:41:02;20.30;89.30
73438;DHT22;66471;56.532;21.020;2023-06-22T07:43:32;20.40;89.40
73438;DHT22;66471;56.532;21.020;2023-06-22T07:46:01;20.80;88.50
73438;DHT22;66471;56.532;21.020;2023-06-22T07:48:29;21.40;85.90
73438;DHT22;66471;56.532;21.020;2023-06-22T07:50:56;21.90;83.10
73438;DHT22;66471;56.532;21.020;2023-06-22T07:53:23;22.20;81.90
73438;DHT22;66471;56.532;21.020;2023-06-22T07:55:50;22.80;80.80
73438;DHT22;66471;56.532;21.020;2023-06-22T07:58:17;23.20;79.50
73438;DHT22;66471;56.532;21.020;2023-06-22T08:00:46;23.60;78.70
73438;DHT22;66471;56.532;21.020;2023-06-22T08:03:13;24.00;76.50
73438;DHT22;66471;56.532;21.020;2023-06-22T08:05:40;23.70;76.70
73438;DHT22;66471;56.532;21.020;2023-06-22T08:08:07;23.20;77.40
73438;DHT22;66471;56.532;21.020;2023-06-22T08:10:34;22.90;79.60
73438;DHT22;66471;56.532;21.020;2023-06-22T08:13:03;22.60;80.30
73438;DHT22;66471;56.532;21.020;2023-06-22T08:15:30;22.30;80.80
73438;DHT22;66471;56.532;21.020;2023-06-22T08:17:57;22.20;80.60
73438;DHT22;66471;56.532;21.020;2023-06-22T08:20:26;21.70;83.10
73438;DHT22;66471;56.532;21.020;2023-06-22T08:22:55;21.60;83.70
73438;DHT22;66471;56.532;21.020;2023-06-22T08:25:22;21.70;83.00
73438;DHT22;66471;56.532;21.020;2023-06-22T08:27:49;21.60;82.20
73438;DHT22;66471;56.532;21.020;2023-06-22T08:30:16;21.70;83.00
73438;DHT22;66471;56.532;21.020;2023-06-22T08:32:45;22.10;81.80
73438;DHT22;66471;56.532;21.020;2023-06-22T08:35:12;22.60;79.80
73438;DHT22;66471;56.532;21.020;2023-06-22T08:37:39;23.40;78.50
73438;DHT22;66471;56.532;21.020;2023-06-22T08:40:08;23.90;75.80
73438;DHT22;66471;56.532;21.020;2023-06-22T08:42:37;23.90;75.20
73438;DHT22;66471;56.532;21.020;2023-06-22T08:45:05;23.90;75.60
73438;DHT22;66471;56.532;21.020;2023-06-22T08:47:33;23.90;74.80
73438;DHT22;66471;56.532;21.020;2023-06-22T08:50:00;23.60;74.70
73438;DHT22;66471;56.532;21.020;2023-06-22T08:52:30;23.50;75.90
73438;DHT22;66471;56.532;21.020;2023-06-22T08:54:57;23.50;76.10
73438;DHT22;66471;56.532;21.020;2023-06-22T08:57:28;23.00;76.70
73438;DHT22;66471;56.532;21.020;2023-06-22T08:59:56;22.80;77.50
73438;DHT22;66471;56.532;21.020;2023-06-22T09:02:26;23.00;76.70
73438;DHT22;66471;56.532;21.020;2023-06-22T09:04:58;22.70;76.80
73438;DHT22;66471;56.532;21.020;2023-06-22T09:07:25;22.70;77.10
73438;DHT22;66471;56.532;21.020;2023-06-22T09:09:53;22.90;77.00
73438;DHT22;66471;56.532;21.020;2023-06-22T09:12:20;23.00;76.30
73438;DHT22;66471;56.532;21.020;2023-06-22T09:14:49;22.90;76.20
73438;DHT22;66471;56.532;21.020;2023-06-22T09:17:17;23.10;76.60
73438;DHT22;66471;56.532;21.020;2023-06-22T09:19:46;23.30;75.60
73438;DHT22;66471;56.532;21.020;2023-06-22T09:22:14;23.00;76.60
73438;DHT22;66471;56.532;21.020;2023-06-22T09:24:41;23.00;76.60
73438;DHT22;66471;56.532;21.020;2023-06-22T09:27:09;22.60;77.30
73438;DHT22;66471;56.532;21.020;2023-06-22T09:29:36;22.50;77.20
73438;DHT22;66471;56.532;21.020;2023-06-22T09:32:03;22.70;76.50
73438;DHT22;66471;56.532;21.020;2023-06-22T09:34:30;22.80;76.70
73438;DHT22;66471;56.532;21.020;2023-06-22T09:36:58;22.90;75.60
73438;DHT22;66471;56.532;21.020;2023-06-22T09:39:27;22.80;75.80
73438;DHT22;66471;56.532;21.020;2023-06-22T09:41:54;22.30;78.20
73438;DHT22;66471;56.532;21.020;2023-06-22T09:44:21;22.10;77.90
73438;DHT22;66471;56.532;21.020;2023-06-22T09:46:48;21.90;78.60
73438;DHT22;66471;56.532;21.020;2023-06-22T09:49:15;22.00;78.80
73438;DHT22;66471;56.532;21.020;2023-06-22T09:51:43;22.00;78.00
73438;DHT22;66471;56.532;21.020;2023-06-22T09:54:10;21.90;79.70
73438;DHT22;66471;56.532;21.020;2023-06-22T09:56:37;21.90;78.50
73438;DHT22;66471;56.532;21.020;2023-06-22T09:59:04;21.80;78.00
73438;DHT22;66471;56.532;21.020;2023-06-22T10:01:44;21.80;79.30
73438;DHT22;66471;56.532;21.020;2023-06-22T10:04:11;21.80;78.50
73438;DHT22;66471;56.532;21.020;2023-06-22T10:06:39;21.80;78.50
73438;DHT22;66471;56.532;21.020;2023-06-22T10:09:07;21.50;79.10
73438;DHT22;66471;56.532;21.020;2023-06-22T10:11:35;21.60;79.80
73438;DHT22;66471;56.532;21.020;2023-06-22T10:14:02;21.80;78.50
73438;DHT22;66471;56.532;21.020;2023-06-22T10:16:31;21.70;78.00
